Time;durP1;ratioP1;P1;durP2;ratioP2;P2;SDS_P1;SDS_P2;PMS_P1;PMS_P2;Temp;Humidity;BMP_temperature;BMP_pressure;BME280_temperature;BME280_humidity;BME280_pressure;Samples;Min_cycle;Max_cycle;Signal;HPM_P1;HPM_P2
2022/11/10 00:01:38;;;;;;;6.50;2.35;;;;;;;9.70;100.00;97691.84;5047732;28;20063;-58
2022/11/10 00:04:23;;;;;;;7.75;2.25;;;;;;;9.71;100.00;97693.50;5048827;28;20526;-59
2022/11/10 00:07:07;;;;;;;10.60;2.20;;;;;;;9.67;100.00;97697.75;5048063;28;20052;-57
2022/11/10 00:09:54;;;;;;;7.38;1.70;;;;;;;9.71;100.00;97704.34;5048770;28;20139;-56
2022/11/10 00:12:39;;;;;;;8.32;1.60;;;;;;;9.69;100.00;97711.03;5047986;28;20186;-60
2022/11/10 00:18:27;;;;;;;6.40;1.85;;;;;;;9.62;100.00;97711.97;5047184;28;20063;-59
2022/11/10 00:21:15;;;;;;;9.30;1.90;;;;;;;9.55;100.00;97705.06;5043563;28;20154;-59
2022/11/10 00:24:00;;;;;;;5.30;2.08;;;;;;;9.47;100.00;97717.88;5048206;28;20056;-60
2022/11/10 00:26:45;;;;;;;6.95;1.77;;;;;;;9.43;100.00;97716.69;5048068;28;20049;-59
2022/11/10 00:29:30;;;;;;;7.20;2.00;;;;;;;9.44;100.00;97721.03;5047480;28;20055;-60
2022/11/10 00:32:15;;;;;;;6.22;1.80;;;;;;;9.28;100.00;97724.47;5047772;28;20446;-58
2022/11/10 00:35:00;;;;;;;7.88;1.98;;;;;;;9.20;100.00;97726.47;5047733;28;20052;-59
2022/11/10 00:37:48;;;;;;;7.88;1.90;;;;;;;9.20;100.00;97729.16;5048189;28;20737;-59
2022/11/10 00:40:33;;;;;;;6.60;2.10;;;;;;;9.32;100.00;97729.16;5047358;28;20055;-59
2022/11/10 00:43:18;;;;;;;6.28;1.63;;;;;;;9.37;100.00;97731.16;5048109;28;20096;-59
2022/11/10 00:46:10;;;;;;;9.02;2.05;;;;;;;9.39;100.00;97737.13;5047384;28;20071;-58
2022/11/10 00:48:55;;;;;;;7.18;2.22;;;;;;;9.34;100.00;97729.75;5048493;28;20056;-58
2022/11/10 00:51:40;;;;;;;5.47;1.73;;;;;;;9.29;100.00;97732.31;5047017;28;20056;-57
2022/11/10 00:54:25;;;;;;;10.13;2.72;;;;;;;9.17;100.00;97735.03;5047776;28;20111;-58
2022/11/10 00:57:10;;;;;;;6.03;2.17;;;;;;;9.13;100.00;97738.44;5047749;28;20048;-58
2022/11/10 00:59:55;;;;;;;8.68;2.25;;;;;;;9.02;100.00;97745.44;5047101;28;20466;-59
2022/11/10 01:02:41;;;;;;;5.20;2.05;;;;;;;8.90;100.00;97748.97;5047384;28;20110;-59
2022/11/10 01:05:26;;;;;;;5.60;2.05;;;;;;;8.84;100.00;97766.06;5047015;28;20063;-59
2022/11/10 01:08:11;;;;;;;8.63;2.20;;;;;;;8.75;100.00;97770.16;5047193;28;20103;-59
2022/11/10 01:11:13;;;;;;;6.88;2.10;;;;;;;8.61;100.00;97777.63;5046481;28;20055;-58
2022/11/10 01:13:58;;;;;;;6.63;2.38;;;;;;;8.53;100.00;97782.31;5047042;28;20052;-58
2022/11/10 01:16:43;;;;;;;4.85;1.98;;;;;;;8.37;100.00;97785.59;5046972;28;20142;-59
2022/11/10 01:19:28;;;;;;;9.38;2.03;;;;;;;8.23;100.00;97793.03;5039236;28;20052;-58
2022/11/10 01:22:13;;;;;;;5.43;2.53;;;;;;;8.07;100.00;97793.41;5046325;28;20523;-58
2022/11/10 01:24:58;;;;;;;9.50;3.17;;;;;;;8.14;100.00;97806.81;5046901;28;20075;-57
2022/11/10 01:27:43;;;;;;;12.02;3.17;;;;;;;8.24;100.00;97811.69;5046359;28;20134;-59
2022/11/10 01:30:28;;;;;;;7.68;3.30;;;;;;;8.30;100.00;97805.38;5046535;28;20108;-58
2022/11/10 01:33:13;;;;;;;11.20;3.05;;;;;;;8.36;100.00;97813.66;5047165;28;20695;-58
2022/11/10 01:35:59;;;;;;;12.50;3.33;;;;;;;8.33;100.00;97817.59;5046968;28;20067;-59
2022/11/10 01:38:44;;;;;;;9.85;3.15;;;;;;;8.43;100.00;97817.06;5046742;28;20146;-58
2022/11/10 01:41:29;;;;;;;8.63;2.40;;;;;;;8.53;100.00;97819.25;5046173;28;20118;-59
2022/11/10 01:44:19;;;;;;;6.65;2.55;;;;;;;8.44;100.00;97808.75;5046662;28;20059;-57
2022/11/10 01:47:04;;;;;;;9.38;2.53;;;;;;;8.28;100.00;97817.47;5045888;28;20186;-59
2022/11/10 01:49:49;;;;;;;8.48;2.75;;;;;;;8.19;100.00;97811.56;5047701;28;20068;-59
2022/11/10 01:52:36;;;;;;;9.73;2.90;;;;;;;8.19;100.00;97814.25;5042524;28;20527;-59
2022/11/10 01:55:23;;;;;;;8.32;4.10;;;;;;;8.20;100.00;97815.91;5045170;28;20190;-59
2022/11/10 01:58:11;;;;;;;8.77;3.00;;;;;;;8.35;100.00;97826.31;5045958;28;20052;-58
2022/11/10 02:00:56;;;;;;;10.73;2.65;;;;;;;8.33;100.00;97823.00;5046145;28;20539;-59
2022/11/10 02:04:13;;;;;;;8.30;2.92;;;;;;;8.29;100.00;97824.53;5042799;28;20051;-59
2022/11/10 02:06:58;;;;;;;7.55;2.50;;;;;;;8.30;100.00;97821.56;5044686;28;20048;-59
2022/11/10 02:09:44;;;;;;;11.02;2.60;;;;;;;8.22;100.00;97829.97;5053784;28;20423;-58
2022/11/10 02:12:36;;;;;;;6.82;2.15;;;;;;;8.23;100.00;97828.94;5066201;28;20154;-58
2022/11/10 02:15:22;;;;;;;4.95;2.50;;;;;;;8.12;100.00;97837.78;5065798;28;20162;-59
2022/11/10 02:18:08;;;;;;;4.88;2.22;;;;;;;8.01;100.00;97833.94;5066651;28;20048;-57
2022/11/10 02:20:53;;;;;;;11.00;2.45;;;;;;;7.84;100.00;97839.91;5025350;28;20061;-56
2022/11/10 02:23:38;;;;;;;6.88;2.55;;;;;;;7.75;100.00;97838.56;5026532;28;20068;-58
2022/11/10 02:26:26;;;;;;;6.45;2.13;;;;;;;7.68;100.00;97849.41;5026539;28;20048;-59
2022/11/10 02:29:12;;;;;;;8.57;2.92;;;;;;;7.62;100.00;97842.19;5026683;28;20051;-59
2022/11/10 02:31:57;;;;;;;5.82;2.40;;;;;;;7.32;100.00;97853.63;5025221;28;20048;-58
2022/11/10 02:34:43;;;;;;;5.75;2.30;;;;;;;7.29;100.00;97863.81;5026517;28;20065;-59
2022/11/10 02:37:28;;;;;;;6.63;2.20;;;;;;;7.09;100.00;97855.88;5025717;28;20065;-59
2022/11/10 02:40:13;;;;;;;5.88;2.50;;;;;;;6.98;100.00;97870.03;5025969;28;20048;-58
2022/11/10 02:42:58;;;;;;;8.27;2.58;;;;;;;6.79;100.00;97877.16;5025935;28;20057;-58
2022/11/10 02:45:44;;;;;;;7.35;2.33;;;;;;;6.62;100.00;97875.81;5028279;28;20527;-59
2022/11/10 02:48:29;;;;;;;6.20;2.50;;;;;;;6.49;100.00;97887.44;5046155;28;20178;-59
2022/11/10 02:51:14;;;;;;;10.30;3.13;;;;;;;6.50;100.00;97889.06;5036877;28;20056;-59
2022/11/10 02:54:00;;;;;;;7.35;3.08;;;;;;;6.52;100.00;97888.88;5051176;28;20048;-58
2022/11/10 02:56:44;;;;;;;10.18;3.00;;;;;;;6.46;100.00;97901.31;5045160;28;20048;-59
2022/11/10 02:59:29;;;;;;;8.98;3.53;;;;;;;6.38;100.00;97898.88;5049659;28;20825;-59
2022/11/10 03:02:14;;;;;;;11.38;4.00;;;;;;;6.35;100.00;97916.22;5048520;28;20128;-59
2022/11/10 03:04:59;;;;;;;11.00;4.25;;;;;;;6.33;100.00;97921.00;5046459;28;20053;-58
2022/11/10 03:07:44;;;;;;;9.93;4.15;;;;;;;6.46;100.00;97925.53;5029288;28;20044;-59
2022/11/10 03:10:30;;;;;;;10.07;3.88;;;;;;;6.22;100.00;97930.53;5057857;28;20056;-59
2022/11/10 03:13:14;;;;;;;8.50;4.75;;;;;;;6.19;100.00;97930.97;5069408;28;20550;-59
2022/11/10 03:16:00;;;;;;;11.82;4.25;;;;;;;6.10;100.00;97934.91;5048291;28;20130;-59
2022/11/10 03:18:44;;;;;;;9.25;4.55;;;;;;;6.08;100.00;97926.25;5050303;28;20578;-56
2022/11/10 03:21:29;;;;;;;15.10;5.22;;;;;;;6.22;100.00;97935.09;5048949;28;20059;-59
2022/11/10 03:24:14;;;;;;;9.77;4.38;;;;;;;6.13;100.00;97933.66;5049124;28;20136;-58
2022/11/10 03:27:00;;;;;;;11.98;5.30;;;;;;;6.07;100.00;97943.38;5049653;28;20141;-59
2022/11/10 03:29:44;;;;;;;11.48;4.20;;;;;;;5.91;100.00;97948.13;5049214;28;20780;-58
2022/11/10 03:32:29;;;;;;;9.73;4.72;;;;;;;5.88;100.00;97951.22;5048815;28;20092;-59
2022/11/10 03:35:15;;;;;;;8.30;4.53;;;;;;;5.82;100.00;97957.44;5049047;28;20059;-58
2022/11/10 03:38:00;;;;;;;11.93;5.00;;;;;;;5.82;100.00;97954.75;5049210;28;20052;-57
2022/11/10 03:40:48;;;;;;;9.00;4.65;;;;;;;5.77;100.00;97962.59;5048603;28;20546;-57
2022/11/10 03:43:53;;;;;;;9.95;4.47;;;;;;;5.69;100.00;97960.94;5049191;28;20055;-59
2022/11/10 03:46:38;;;;;;;10.32;4.45;;;;;;;5.71;100.00;97964.22;5046794;28;20110;-56
2022/11/10 03:49:27;;;;;;;11.07;4.53;;;;;;;5.65;100.00;97957.84;5048164;28;20817;-57
2022/11/10 03:52:14;;;;;;;12.27;5.32;;;;;;;5.81;100.00;97961.16;5048159;28;20103;-58
2022/11/10 03:54:59;;;;;;;17.42;5.25;;;;;;;5.91;100.00;97972.31;5048846;28;20060;-59
2022/11/10 03:57:47;;;;;;;12.13;5.25;;;;;;;6.14;100.00;97978.31;5048322;28;20175;-58
2022/11/10 04:00:32;;;;;;;15.07;6.22;;;;;;;6.10;100.00;97978.75;5028245;28;20056;-58
2022/11/10 04:03:17;;;;;;;10.00;5.07;;;;;;;6.10;100.00;97980.63;5028882;28;20064;-59
2022/11/10 04:09:06;;;;;;;11.55;5.43;;;;;;;6.05;100.00;97986.59;5033204;28;20183;-57
2022/11/10 04:21:03;;;;;;;9.75;5.45;;;;;;;5.78;100.00;98007.25;5027449;28;20080;-59
2022/11/10 04:23:48;;;;;;;9.70;4.57;;;;;;;5.69;100.00;98020.91;5028491;28;20056;-59
2022/11/10 04:26:37;;;;;;;14.10;5.75;;;;;;;5.60;100.00;98022.09;5027627;28;20555;-57
2022/11/10 04:29:22;;;;;;;10.10;5.07;;;;;;;5.36;100.00;98016.25;5028265;28;20049;-58
2022/11/10 04:32:07;;;;;;;10.93;5.45;;;;;;;5.36;100.00;98023.47;5027308;28;20055;-59
2022/11/10 04:34:52;;;;;;;12.98;5.63;;;;;;;5.42;100.00;98033.44;5028350;28;20052;-57
2022/11/10 04:37:37;;;;;;;10.52;5.35;;;;;;;5.34;100.00;98042.47;5027642;28;20060;-58
2022/11/10 04:40:22;;;;;;;7.60;4.40;;;;;;;5.05;100.00;98029.16;5028311;28;20424;-59
2022/11/10 04:43:07;;;;;;;17.92;5.57;;;;;;;5.21;100.00;98025.28;5027799;28;20330;-59
2022/11/10 04:45:52;;;;;;;9.48;5.25;;;;;;;5.34;100.00;98037.94;5027974;28;20053;-59
2022/11/10 04:48:38;;;;;;;11.25;6.53;;;;;;;5.01;100.00;98041.31;5031155;28;20273;-59
2022/11/10 04:51:35;;;;;;;11.77;6.03;;;;;;;4.85;100.00;98053.22;5046618;28;20055;-58
2022/11/10 04:54:20;;;;;;;10.85;5.45;;;;;;;4.98;100.00;98063.22;5047181;28;20060;-58
2022/11/10 04:57:05;;;;;;;14.00;6.40;;;;;;;4.91;100.00;98067.72;5047532;28;20063;-56
2022/11/10 04:59:50;;;;;;;9.85;5.60;;;;;;;4.92;100.00;98064.00;5045082;28;20056;-56
2022/11/10 05:02:35;;;;;;;10.35;5.45;;;;;;;5.05;100.00;98065.94;5027484;28;20503;-59
2022/11/10 05:05:24;;;;;;;18.20;6.63;;;;;;;4.86;100.00;98067.47;5027120;28;20555;-57
2022/11/10 05:08:09;;;;;;;14.27;6.00;;;;;;;4.74;100.00;98064.50;5027180;28;20076;-57
2022/11/10 05:10:54;;;;;;;12.35;6.18;;;;;;;4.72;100.00;98069.25;5061886;28;20182;-58
2022/11/10 05:13:40;;;;;;;15.20;5.80;;;;;;;4.86;100.00;98070.97;5067385;28;20534;-58
2022/11/10 05:16:25;;;;;;;13.68;6.60;;;;;;;4.89;100.00;98077.78;5067114;28;20446;-58
2022/11/10 05:19:10;;;;;;;10.98;6.60;;;;;;;4.86;100.00;98076.34;5060595;28;20107;-56
2022/11/10 05:21:55;;;;;;;12.98;6.78;;;;;;;4.93;100.00;98076.38;5045465;28;20047;-59
2022/11/10 05:24:40;;;;;;;18.25;9.13;;;;;;;5.00;100.00;98087.13;5027453;28;20056;-59
2022/11/10 05:27:25;;;;;;;10.82;7.60;;;;;;;4.87;100.00;98086.03;5027382;28;20056;-59
2022/11/10 05:30:10;;;;;;;9.73;6.13;;;;;;;4.93;100.00;98084.44;5026486;28;20103;-59
2022/11/10 05:32:56;;;;;;;9.77;5.88;;;;;;;4.88;100.00;98082.34;5026487;28;20052;-59
2022/11/10 05:35:41;;;;;;;12.13;5.53;;;;;;;4.84;100.00;98082.94;5026915;28;20057;-57
2022/11/10 05:38:26;;;;;;;9.32;6.05;;;;;;;4.61;100.00;98081.34;5027344;28;20060;-59
2022/11/10 05:41:11;;;;;;;12.18;5.80;;;;;;;4.52;100.00;98084.19;5026296;28;20056;-59
2022/11/10 05:43:57;;;;;;;10.27;4.97;;;;;;;4.35;100.00;98088.97;5027405;28;20567;-59
2022/11/10 05:46:42;;;;;;;9.48;5.97;;;;;;;4.26;100.00;98087.47;5026624;28;20088;-59
2022/11/10 05:49:27;;;;;;;12.95;5.88;;;;;;;4.49;100.00;98083.75;5037197;28;20075;-57
2022/11/10 05:52:12;;;;;;;13.23;5.53;;;;;;;4.51;100.00;98085.22;5045786;28;20091;-59
2022/11/10 05:54:57;;;;;;;17.08;6.15;;;;;;;4.40;100.00;98078.53;5046503;28;20052;-59
2022/11/10 05:57:44;;;;;;;12.73;5.70;;;;;;;4.25;100.00;98078.63;5046426;28;20052;-58
2022/11/10 06:00:30;;;;;;;9.32;5.32;;;;;;;4.24;100.00;98078.81;5026352;28;20174;-59
2022/11/10 06:03:18;;;;;;;10.85;5.53;;;;;;;4.45;100.00;98090.53;5025874;28;20052;-58
2022/11/10 06:06:04;;;;;;;12.60;6.28;;;;;;;4.45;100.00;98104.75;5026453;28;20057;-59
2022/11/10 06:08:49;;;;;;;9.77;5.00;;;;;;;4.48;100.00;98119.63;5029068;28;20059;-59
2022/11/10 06:11:34;;;;;;;10.60;5.07;;;;;;;4.35;100.00;98128.38;5065806;28;20423;-59
2022/11/10 06:14:19;;;;;;;8.50;5.40;;;;;;;4.41;100.00;98125.75;5066026;28;20059;-57
2022/11/10 06:17:04;;;;;;;8.75;4.70;;;;;;;4.44;100.00;98132.59;5066501;28;20137;-58
2022/11/10 06:19:49;;;;;;;12.43;5.47;;;;;;;4.43;100.00;98144.34;5053511;28;20060;-58
2022/11/10 06:22:34;;;;;;;10.73;5.07;;;;;;;4.42;100.00;98131.94;5046171;28;20055;-56
2022/11/10 06:25:20;;;;;;;10.63;5.82;;;;;;;4.49;100.00;98134.69;5048143;28;20064;-58
2022/11/10 06:28:07;;;;;;;10.32;5.55;;;;;;;4.63;100.00;98149.88;5040994;28;20048;-56
2022/11/10 06:30:52;;;;;;;10.95;6.15;;;;;;;4.84;100.00;98166.13;5030846;28;20055;-56
2022/11/10 06:33:36;;;;;;;11.20;6.07;;;;;;;4.78;100.00;98175.75;5038834;28;20067;-58
2022/11/10 06:36:21;;;;;;;11.80;6.47;;;;;;;4.56;100.00;98178.47;5051294;28;20056;-58
2022/11/10 06:39:06;;;;;;;8.88;5.30;;;;;;;4.50;100.00;98185.44;5032806;28;20190;-59
2022/11/10 06:41:52;;;;;;;13.10;6.13;;;;;;;4.56;100.00;98189.22;5038015;28;20052;-59
2022/11/10 06:44:36;;;;;;;11.35;6.80;;;;;;;4.52;100.00;98199.50;5044354;28;20087;-59
2022/11/10 06:47:21;;;;;;;14.48;6.43;;;;;;;4.61;100.00;98212.78;5043566;28;20049;-59
2022/11/10 06:50:06;;;;;;;13.27;6.32;;;;;;;4.62;100.00;98223.31;5044623;28;20063;-58
2022/11/10 06:52:56;;;;;;;11.50;6.43;;;;;;;4.69;100.00;98226.06;5043563;28;20416;-59
2022/11/10 06:55:41;;;;;;;11.40;6.30;;;;;;;4.65;100.00;98236.34;5054962;28;20064;-59
2022/11/10 06:58:26;;;;;;;10.75;5.88;;;;;;;4.74;100.00;98246.94;5039637;28;20986;-59
2022/11/10 07:01:11;;;;;;;17.05;6.25;;;;;;;4.72;100.00;98246.31;5038616;28;20063;-58
2022/11/10 07:03:56;;;;;;;11.13;6.05;;;;;;;4.66;100.00;98247.91;5040941;28;20060;-58
2022/11/10 07:07:01;;;;;;;11.30;6.15;;;;;;;4.69;100.00;98251.03;5045654;28;20534;-59
2022/11/10 07:09:46;;;;;;;11.35;5.78;;;;;;;4.77;100.00;98255.44;5048165;28;20052;-59
2022/11/10 07:12:31;;;;;;;9.73;4.97;;;;;;;4.88;100.00;98258.63;5049690;28;20060;-58
2022/11/10 07:15:16;;;;;;;12.25;6.30;;;;;;;5.03;100.00;98255.84;5056384;28;20059;-59
2022/11/10 07:18:02;;;;;;;11.98;5.60;;;;;;;5.18;100.00;98256.59;5054601;28;20049;-59
2022/11/10 07:20:47;;;;;;;10.25;4.93;;;;;;;5.20;100.00;98253.72;5040507;28;20447;-58
2022/11/10 07:23:33;;;;;;;10.07;4.97;;;;;;;5.29;100.00;98268.66;5049614;28;20051;-59
2022/11/10 07:26:18;;;;;;;8.15;4.88;;;;;;;5.41;100.00;98278.84;5036095;28;20130;-59
2022/11/10 07:29:04;;;;;;;10.73;4.38;;;;;;;5.47;100.00;98264.66;5047834;28;20044;-59
2022/11/10 07:31:49;;;;;;;7.47;4.72;;;;;;;5.58;100.00;98274.03;5043163;28;20055;-58
2022/11/10 07:34:34;;;;;;;6.90;4.22;;;;;;;5.65;100.00;98282.13;5037761;28;20191;-59
2022/11/10 07:37:19;;;;;;;7.68;3.80;;;;;;;5.68;100.00;98281.72;5047758;28;20055;-59
2022/11/10 07:40:04;;;;;;;7.18;3.90;;;;;;;5.75;100.00;98289.81;5056111;28;20195;-59
2022/11/10 07:42:50;;;;;;;6.60;3.40;;;;;;;5.78;100.00;98286.75;5047856;28;20052;-59
2022/11/10 07:45:35;;;;;;;6.55;3.40;;;;;;;5.85;100.00;98288.44;5045919;28;20625;-59
2022/11/10 07:48:20;;;;;;;13.07;3.38;;;;;;;5.95;100.00;98298.00;5049436;28;20048;-57
2022/11/10 07:51:05;;;;;;;7.93;3.42;;;;;;;6.08;100.00;98308.03;5027699;28;20129;-58
2022/11/10 07:53:50;;;;;;;8.82;3.38;;;;;;;6.20;100.00;98317.16;5055477;28;20122;-58
2022/11/10 07:56:35;;;;;;;7.35;3.53;;;;;;;6.25;100.00;98319.25;5056870;28;20056;-58
2022/11/10 07:59:20;;;;;;;9.30;3.08;;;;;;;6.32;100.00;98319.28;5061378;28;20048;-59
2022/11/10 08:02:07;;;;;;;8.25;3.72;;;;;;;6.35;100.00;98318.88;5052378;28;20938;-59
2022/11/10 08:04:53;;;;;;;8.65;3.63;;;;;;;6.39;100.00;98312.09;5066890;28;20059;-59
2022/11/10 08:07:39;;;;;;;12.15;3.90;;;;;;;6.52;100.00;98318.53;5042908;28;20668;-59
2022/11/10 08:10:29;;;;;;;6.00;3.50;;;;;;;6.64;100.00;98317.72;5060758;28;20063;-59
2022/11/10 08:13:14;;;;;;;10.10;3.35;;;;;;;6.73;100.00;98321.09;5067816;28;20059;-58
2022/11/10 08:16:00;;;;;;;10.13;3.63;;;;;;;6.83;100.00;98325.25;5068791;28;20063;-59
2022/11/10 08:18:45;;;;;;;13.23;3.42;;;;;;;6.93;100.00;98336.44;5064636;28;20546;-59
2022/11/10 08:21:30;;;;;;;6.50;3.10;;;;;;;7.05;100.00;98335.84;5053874;28;20056;-59
2022/11/10 08:24:15;;;;;;;9.48;3.45;;;;;;;7.12;100.00;98326.72;5064550;28;20527;-59
2022/11/10 08:27:00;;;;;;;9.68;3.53;;;;;;;7.24;100.00;98329.66;5035424;28;20203;-56
2022/11/10 08:29:45;;;;;;;12.82;3.40;;;;;;;7.36;100.00;98335.25;5029379;28;20860;-62
2022/11/10 08:32:30;;;;;;;6.63;2.90;;;;;;;7.49;100.00;98328.19;5035508;28;20544;-57
2022/11/10 08:35:15;;;;;;;6.25;3.08;;;;;;;7.66;100.00;98331.28;5025963;28;20056;-56
2022/11/10 08:38:08;;;;;;;6.97;2.90;;;;;;;7.85;100.00;98331.47;5029413;28;20060;-57
2022/11/10 08:40:56;;;;;;;5.80;2.60;;;;;;;8.04;100.00;98332.47;5050223;28;20063;-57
2022/11/10 08:43:41;;;;;;;5.60;2.33;;;;;;;8.13;100.00;98333.03;5058444;28;20809;-58
2022/11/10 08:46:26;;;;;;;6.38;2.55;;;;;;;8.24;100.00;98335.09;5045085;28;20118;-56
2022/11/10 08:49:11;;;;;;;6.15;1.90;;;;;;;8.38;100.00;98340.44;5045350;28;20052;-55
2022/11/10 08:51:56;;;;;;;6.00;2.50;;;;;;;8.53;100.00;98343.72;5043106;28;20067;-60
2022/11/10 08:54:41;;;;;;;7.22;2.40;;;;;;;8.60;100.00;98343.69;5029441;28;20056;-57
2022/11/10 08:57:25;;;;;;;3.72;1.50;;;;;;;8.68;100.00;98346.16;5046556;28;20099;-59
2022/11/10 09:00:12;;;;;;;5.90;1.52;;;;;;;8.82;100.00;98351.47;5044910;28;20060;-58
2022/11/10 09:03:24;;;;;;;5.60;1.60;;;;;;;8.98;100.00;98353.69;5027191;28;20057;-57
2022/11/10 09:06:10;;;;;;;3.55;1.48;;;;;;;9.08;100.00;98347.81;5028486;28;20186;-57
2022/11/10 09:08:55;;;;;;;7.82;1.70;;;;;;;9.17;100.00;98359.16;5030254;28;20176;-56
2022/11/10 09:11:40;;;;;;;4.90;1.38;;;;;;;9.26;100.00;98359.72;5053303;28;20048;-56
2022/11/10 09:14:25;;;;;;;4.80;1.38;;;;;;;9.36;100.00;98356.53;5034199;28;20544;-60
2022/11/10 09:17:10;;;;;;;4.38;1.35;;;;;;;9.45;100.00;98352.53;5049114;28;20618;-59
2022/11/10 09:19:55;;;;;;;5.20;1.17;;;;;;;9.57;100.00;98362.59;5036108;28;20052;-60
2022/11/10 09:22:39;;;;;;;2.95;1.00;;;;;;;9.66;100.00;98372.09;5044742;28;20606;-56
2022/11/10 09:25:24;;;;;;;3.35;1.10;;;;;;;9.80;99.92;98367.38;5052893;28;20102;-59
2022/11/10 09:28:13;;;;;;;3.20;1.50;;;;;;;9.97;96.14;98375.78;5043321;28;20098;-60
2022/11/10 09:30:59;;;;;;;4.53;1.30;;;;;;;10.09;94.97;98375.84;5043951;28;20064;-58
2022/11/10 09:33:44;;;;;;;4.35;1.05;;;;;;;10.17;94.73;98385.56;5031893;28;20112;-56
2022/11/10 09:36:29;;;;;;;2.90;1.15;;;;;;;10.18;95.46;98381.81;5036321;28;20052;-54
2022/11/10 09:39:14;;;;;;;5.40;1.25;;;;;;;10.26;93.05;98386.94;5043404;28;20056;-56
2022/11/10 09:42:00;;;;;;;4.13;1.23;;;;;;;10.32;92.08;98396.00;5041946;28;20856;-59
2022/11/10 09:44:53;;;;;;;7.65;1.38;;;;;;;10.42;92.83;98395.50;5041587;28;20178;-57
2022/11/10 09:47:47;;;;;;;4.28;1.08;;;;;;;10.44;92.28;98406.97;5044208;28;20554;-53
2022/11/10 09:51:00;;;;;;;3.80;1.08;;;;;;;10.49;92.15;98404.41;5036904;28;20146;-56
2022/11/10 09:54:20;;;;;;;6.00;1.35;;;;;;;10.56;89.14;98417.03;5056695;28;20138;-56
2022/11/10 09:57:10;;;;;;;7.68;1.17;;;;;;;10.65;90.37;98404.88;5041506;28;20115;-59
2022/11/10 09:59:55;;;;;;;5.55;1.05;;;;;;;10.65;90.63;98411.09;5055332;28;20568;-56
2022/11/10 10:02:55;;;;;;;4.88;1.08;;;;;;;10.70;90.84;98412.28;5037312;28;20195;-58
2022/11/10 10:05:54;;;;;;;4.90;1.10;;;;;;;10.72;90.38;98416.41;5046186;28;20761;-56
2022/11/10 10:08:53;;;;;;;6.32;1.55;;;;;;;10.82;89.86;98413.19;5035952;28;20468;-56
2022/11/10 10:11:49;;;;;;;3.70;1.00;;;;;;;10.86;88.91;98422.50;5030908;28;20619;-55
2022/11/10 10:15:13;;;;;;;7.05;1.25;;;;;;;10.88;86.85;98414.16;5052764;28;20059;-56
2022/11/10 10:18:08;;;;;;;3.10;0.77;;;;;;;10.96;86.89;98419.25;5039599;28;20078;-56
2022/11/10 10:21:17;;;;;;;8.70;1.45;;;;;;;10.98;86.15;98425.28;5031361;28;20478;-55
2022/11/10 10:24:03;;;;;;;5.95;1.10;;;;;;;11.02;86.76;98422.94;5037354;28;20138;-58
2022/11/10 10:26:59;;;;;;;5.88;1.00;;;;;;;11.09;86.29;98420.16;5043736;28;20056;-59
2022/11/10 10:29:48;;;;;;;4.40;1.23;;;;;;;11.07;86.62;98423.09;5051444;28;20060;-58
2022/11/10 10:32:33;;;;;;;2.60;0.80;;;;;;;11.12;85.82;98425.09;5039354;28;20052;-59
2022/11/10 10:35:18;;;;;;;3.15;1.00;;;;;;;11.22;85.63;98427.25;5051369;28;20444;-60
2022/11/10 10:38:11;;;;;;;3.58;1.10;;;;;;;11.31;85.15;98420.44;5043201;28;20094;-58
2022/11/10 10:41:11;;;;;;;2.97;1.00;;;;;;;11.43;85.09;98415.88;5041941;28;20879;-59
2022/11/10 10:43:59;;;;;;;7.05;1.27;;;;;;;11.49;83.44;98419.56;5040309;28;20111;-58
2022/11/10 10:46:56;;;;;;;6.05;1.13;;;;;;;11.63;83.20;98419.34;5043374;28;20127;-59
2022/11/10 10:49:41;;;;;;;5.40;1.00;;;;;;;11.68;81.81;98411.31;5033748;28;20175;-58
2022/11/10 10:52:26;;;;;;;6.72;1.35;;;;;;;11.72;80.38;98412.50;5040697;28;20048;-59
2022/11/10 10:55:12;;;;;;;6.78;1.30;;;;;;;11.75;79.38;98416.69;5030163;28;20056;-59
2022/11/10 10:58:00;;;;;;;3.75;0.80;;;;;;;11.79;80.00;98412.44;5043738;28;20553;-59
2022/11/10 11:00:48;;;;;;;3.17;0.88;;;;;;;11.82;80.10;98411.94;5041495;28;20056;-57
2022/11/10 11:03:46;;;;;;;5.03;0.90;;;;;;;11.86;79.79;98415.03;5045218;28;20060;-58
2022/11/10 11:06:32;;;;;;;2.65;1.35;;;;;;;11.90;79.91;98424.38;5057048;28;20126;-57
2022/11/10 11:09:23;;;;;;;4.85;0.90;;;;;;;11.94;79.89;98431.78;5042416;28;20211;-58
2022/11/10 11:12:21;;;;;;;3.58;0.90;;;;;;;12.12;79.69;98423.81;5031832;28;20048;-59
2022/11/10 11:15:12;;;;;;;5.85;1.00;;;;;;;12.28;78.65;98416.84;5040958;28;20054;-59
2022/11/10 11:18:00;;;;;;;3.27;0.80;;;;;;;12.47;78.38;98417.53;5041312;28;20190;-58
2022/11/10 11:21:01;;;;;;;3.30;0.80;;;;;;;12.61;75.65;98410.75;5036680;28;20333;-58
2022/11/10 11:24:14;;;;;;;7.30;1.00;;;;;;;12.81;76.29;98404.09;5054835;28;20048;-56
2022/11/10 11:27:14;;;;;;;4.80;0.95;;;;;;;12.85;73.97;98415.31;5041756;28;20055;-56
2022/11/10 11:30:04;;;;;;;3.08;0.85;;;;;;;12.86;75.20;98412.34;5062772;28;20060;-59
2022/11/10 11:33:12;;;;;;;4.32;0.93;;;;;;;12.91;71.45;98403.47;5039981;28;20583;-58
2022/11/10 11:36:33;;;;;;;4.80;0.80;;;;;;;12.92;72.38;98399.69;5060729;28;20488;-57
2022/11/10 11:39:24;;;;;;;2.65;0.75;;;;;;;12.95;73.42;98414.69;5035734;28;20064;-58
2022/11/10 11:42:36;;;;;;;4.30;0.77;;;;;;;12.86;73.47;98409.63;5052020;28;20056;-59
2022/11/10 11:46:00;;;;;;;4.20;1.05;;;;;;;12.88;73.32;98406.66;5063738;28;20075;-57
2022/11/10 11:49:05;;;;;;;2.85;1.08;;;;;;;12.83;73.41;98417.44;5038406;28;20052;-59
2022/11/10 11:52:01;;;;;;;1.75;0.60;;;;;;;12.74;72.14;98414.25;5039684;28;20064;-58
2022/11/10 11:55:10;;;;;;;4.68;0.60;;;;;;;12.64;73.01;98412.16;5065181;28;20055;-58
2022/11/10 11:58:09;;;;;;;4.35;0.90;;;;;;;12.67;73.34;98405.41;5047865;28;20066;-58
2022/11/10 12:01:22;;;;;;;2.70;0.70;;;;;;;12.66;72.45;98407.31;5045390;28;20733;-58
2022/11/10 12:04:31;;;;;;;2.88;0.90;;;;;;;12.63;71.26;98405.06;5040800;28;20526;-58
2022/11/10 12:07:31;;;;;;;2.65;1.25;;;;;;;12.53;72.39;98404.88;5046324;28;20415;-56
2022/11/10 12:10:30;;;;;;;6.90;1.27;;;;;;;12.53;73.17;98400.25;5055940;28;20799;-59
2022/11/10 12:13:35;;;;;;;3.03;0.80;;;;;;;12.62;73.89;98406.16;5041877;28;20342;-56
2022/11/10 12:16:32;;;;;;;2.80;0.80;;;;;;;12.64;72.68;98401.28;5045626;28;20064;-59
2022/11/10 12:19:23;;;;;;;3.45;0.80;;;;;;;12.63;72.74;98412.44;5040108;28;20048;-58
2022/11/10 12:22:37;;;;;;;2.90;0.70;;;;;;;12.59;73.45;98412.91;5038842;28;20235;-60
2022/11/10 12:25:35;;;;;;;6.10;1.10;;;;;;;12.56;73.33;98396.22;5035965;28;20047;-60
2022/11/10 12:28:24;;;;;;;3.58;0.82;;;;;;;12.62;72.28;98392.56;5037211;28;20059;-59
2022/11/10 12:31:16;;;;;;;5.05;0.85;;;;;;;12.65;74.23;98394.81;5029219;28;20068;-59
2022/11/10 12:34:13;;;;;;;3.87;1.20;;;;;;;12.67;73.61;98398.09;5044290;28;20060;-60
2022/11/10 12:37:01;;;;;;;4.10;0.73;;;;;;;12.65;72.39;98393.97;5033696;28;20137;-59
2022/11/10 12:40:00;;;;;;;2.55;0.75;;;;;;;12.68;72.87;98399.75;5044553;28;20059;-59
2022/11/10 12:42:54;;;;;;;3.97;0.73;;;;;;;12.68;73.31;98393.50;5013522;28;20218;-57
2022/11/10 12:45:44;;;;;;;3.00;0.80;;;;;;;12.66;73.87;98391.03;5025052;28;20219;-62
2022/11/10 12:48:45;;;;;;;5.95;1.00;;;;;;;12.68;72.79;98394.31;5023492;28;20067;-58
2022/11/10 12:51:51;;;;;;;2.60;0.80;;;;;;;12.69;72.88;98393.25;5036563;28;20047;-59
2022/11/10 12:54:38;;;;;;;3.38;0.73;;;;;;;12.74;70.92;98395.25;5044797;28;20071;-58
2022/11/10 12:57:26;;;;;;;4.93;0.75;;;;;;;12.78;70.24;98409.19;5023811;28;20187;-58
2022/11/10 13:00:31;;;;;;;4.47;0.70;;;;;;;12.76;71.23;98409.44;5029673;28;20064;-57
2022/11/10 13:03:28;;;;;;;2.45;0.60;;;;;;;12.88;69.32;98412.09;5036390;28;20059;-58
2022/11/10 13:06:39;;;;;;;3.88;1.00;;;;;;;12.80;70.02;98409.75;5039237;28;20180;-58
2022/11/10 13:09:29;;;;;;;2.03;0.60;;;;;;;12.80;69.89;98410.59;5048950;28;20530;-59
2022/11/10 13:12:17;;;;;;;5.43;1.00;;;;;;;12.73;71.22;98416.19;5034326;28;20059;-60
2022/11/10 13:15:34;;;;;;;5.32;0.80;;;;;;;12.70;70.99;98421.25;5044337;28;20056;-58
2022/11/10 13:18:31;;;;;;;5.30;0.82;;;;;;;12.65;71.99;98421.97;5040091;28;20052;-60
2022/11/10 13:21:16;;;;;;;3.67;0.85;;;;;;;12.70;73.25;98423.97;5029101;28;20060;-61
2022/11/10 13:24:17;;;;;;;3.42;0.60;;;;;;;12.75;74.66;98424.91;5043987;28;20056;-62
2022/11/10 13:27:10;;;;;;;2.00;0.68;;;;;;;12.75;72.76;98415.91;5039942;28;20492;-63
2022/11/10 13:29:57;;;;;;;3.85;0.70;;;;;;;12.95;70.38;98420.13;5044964;28;20094;-58